MMZH/ZIH METAR and TAF weather

Enter ICAO airport designator
Station Type Date Time Source
MMZH METAR 2019/12/09 21:40 UTC NOAA

MMZH 092140Z 25010KT 7SM FEW250 32/23 A2985 RMK 8/002 HZY


Station Type Date Time Source
MMZH Decoded METAR 2019/12/09 21:40 UTC NOAA

Ixtapa-Zihuatanejo, Mexico (MMZH) 17-36N 101-28W
Dec 09, 2019 - 04:40 PM EST / 2019.12.09 2140 UTC
Wind: from the WSW (250 degrees) at 12 MPH (10 KT):0
Visibility: 7 mile(s):0
Sky conditions: mostly clear
Temperature: 89 F (32 C)
Heat index: 96.8 F (36.0 C):1
Dew Point: 73 F (23 C)
Relative Humidity: 59%
Pressure (altimeter): 29.85 in. Hg (1010 hPa)
ob: MMZH 092140Z 25010KT 7SM FEW250 32/23 A2985 RMK 8/002 HZY
cycle: 21

Station Type Date Time Source
MMZH TAF 2019/12/09 18:14 UTC NOAA

TAF MMZH 091607Z 0918/1018 22008KT P6SM SCT030 SCT250
FM100300 02005KT P6SM SCT250

Example: see airport list